DTTR

El Borma Airport

El Borma, Tunisia
METAR DTTR 232100Z AUTO VRB02KT NCD 10/03 Q1011
Observed Flight Rules
Feb-23 @ 21:00 UTC (2 hours ago)
Wind Clouds
Variable at 2 knots
  • Clear skies
Temperatures Readings
Current 10°C / 50°F
Dewpoint 3°C / 37°F
Humidity 62%
Altimeter 29.85" Hg
Pressure 1011 hPa
Elevation 259
METAR DTTR 232100Z AUTO VRB02KT NCD 10/03 Q1011
Observed Flight Rules
Feb-23 @ 21:00 UTC
(2 hours ago)
Wind
Variable at 2 knots
Clouds
  • Clear skies
Temperature Dewpoint
10°C / 50°F 3°C / 37°F
Humidity Altimeter Pressure
62% 29.85" Hg 1011 hPa